Kirby, Texas
Current Conditions -  °F | °C
As of 10:51 AM on Friday 24 Oct 2014 (Local Time) from KSAT Reporting Station
Clear Clear  
Wind Chill: 76°   Ceiling: Unl
Heat Index: 76°   Visibility: 10mi
Dew Point: 60°   Wind: 5mph
Humidity: 58%   Direction: 170°S
Pressure: 30.2"   Gusts: NA
Location:  29.4397°N, 98.3901°W
Report Text: KSAT 241551Z 17004KT 10SM CLR 24/16 A3020 RMK AO2 SLP209 T02440156
Loading
Personal Weather Stations






























Interactive Weather Map
Tropical Storm Tracking
New forecast layout! Learn more

10-Day Weather Forecast

Advertisements
Track Severe Weather on mobile